sensor_id;sensor_type;location;lat;lon;timestamp;P1;durP1;ratioP1;P2;durP2;ratioP2
4132;SDS011;2080;51.038;7.008;2022-08-19T00:00:30;574.37;;;516.20;;
4132;SDS011;2080;51.038;7.008;2022-08-19T00:02:56;532.90;;;476.63;;
4132;SDS011;2080;51.038;7.008;2022-08-19T00:05:21;542.37;;;485.83;;
4132;SDS011;2080;51.038;7.008;2022-08-19T00:07:48;564.17;;;506.60;;
4132;SDS011;2080;51.038;7.008;2022-08-19T00:10:17;527.13;;;470.80;;
4132;SDS011;2080;51.038;7.008;2022-08-19T00:12:43;464.03;;;373.07;;
4132;SDS011;2080;51.038;7.008;2022-08-19T00:15:10;469.27;;;383.40;;
4132;SDS011;2080;51.038;7.008;2022-08-19T00:17:41;448.73;;;328.23;;
4132;SDS011;2080;51.038;7.008;2022-08-19T00:20:08;433.10;;;312.87;;
4132;SDS011;2080;51.038;7.008;2022-08-19T00:22:36;412.10;;;268.63;;
4132;SDS011;2080;51.038;7.008;2022-08-19T00:25:06;428.20;;;327.17;;
4132;SDS011;2080;51.038;7.008;2022-08-19T00:27:35;456.30;;;369.93;;
4132;SDS011;2080;51.038;7.008;2022-08-19T00:30:00;443.87;;;352.30;;
4132;SDS011;2080;51.038;7.008;2022-08-19T00:32:28;437.40;;;321.97;;
4132;SDS011;2080;51.038;7.008;2022-08-19T00:34:56;399.90;;;253.73;;
4132;SDS011;2080;51.038;7.008;2022-08-19T00:37:22;383.20;;;212.93;;
4132;SDS011;2080;51.038;7.008;2022-08-19T00:39:54;390.47;;;212.27;;
4132;SDS011;2080;51.038;7.008;2022-08-19T00:42:22;388.23;;;226.20;;
4132;SDS011;2080;51.038;7.008;2022-08-19T00:44:48;403.80;;;253.60;;
4132;SDS011;2080;51.038;7.008;2022-08-19T00:47:16;401.93;;;248.87;;
4132;SDS011;2080;51.038;7.008;2022-08-19T00:49:43;382.60;;;194.30;;
4132;SDS011;2080;51.038;7.008;2022-08-19T00:52:16;374.13;;;203.67;;
4132;SDS011;2080;51.038;7.008;2022-08-19T00:54:53;449.30;;;358.50;;
4132;SDS011;2080;51.038;7.008;2022-08-19T00:57:24;436.80;;;323.73;;
4132;SDS011;2080;51.038;7.008;2022-08-19T01:00:03;381.87;;;210.63;;
4132;SDS011;2080;51.038;7.008;2022-08-19T01:02:35;390.17;;;215.00;;
4132;SDS011;2080;51.038;7.008;2022-08-19T01:05:01;367.80;;;185.27;;
4132;SDS011;2080;51.038;7.008;2022-08-19T01:07:30;382.63;;;210.60;;
4132;SDS011;2080;51.038;7.008;2022-08-19T01:09:55;380.40;;;207.20;;
4132;SDS011;2080;51.038;7.008;2022-08-19T01:12:24;362.30;;;157.07;;
4132;SDS011;2080;51.038;7.008;2022-08-19T01:14:49;362.67;;;152.43;;
4132;SDS011;2080;51.038;7.008;2022-08-19T01:17:16;364.33;;;165.13;;
4132;SDS011;2080;51.038;7.008;2022-08-19T01:19:42;366.13;;;174.63;;
4132;SDS011;2080;51.038;7.008;2022-08-19T01:22:17;412.20;;;278.10;;
4132;SDS011;2080;51.038;7.008;2022-08-19T01:24:51;375.50;;;198.37;;
4132;SDS011;2080;51.038;7.008;2022-08-19T01:27:19;396.67;;;225.47;;
4132;SDS011;2080;51.038;7.008;2022-08-19T01:29:45;351.87;;;137.60;;
4132;SDS011;2080;51.038;7.008;2022-08-19T01:32:15;375.40;;;188.30;;
4132;SDS011;2080;51.038;7.008;2022-08-19T01:34:41;405.87;;;258.77;;
4132;SDS011;2080;51.038;7.008;2022-08-19T01:37:12;424.57;;;311.67;;
4132;SDS011;2080;51.038;7.008;2022-08-19T01:39:39;446.17;;;360.47;;
4132;SDS011;2080;51.038;7.008;2022-08-19T01:42:07;423.10;;;300.90;;
4132;SDS011;2080;51.038;7.008;2022-08-19T01:44:36;400.63;;;251.00;;
4132;SDS011;2080;51.038;7.008;2022-08-19T01:47:02;377.17;;;191.17;;
4132;SDS011;2080;51.038;7.008;2022-08-19T01:49:28;366.07;;;169.83;;
4132;SDS011;2080;51.038;7.008;2022-08-19T01:51:56;396.23;;;228.67;;
4132;SDS011;2080;51.038;7.008;2022-08-19T01:54:24;392.70;;;228.47;;
4132;SDS011;2080;51.038;7.008;2022-08-19T01:56:50;418.00;;;296.83;;
4132;SDS011;2080;51.038;7.008;2022-08-19T01:59:19;401.27;;;254.87;;
4132;SDS011;2080;51.038;7.008;2022-08-19T02:01:47;379.63;;;194.47;;
4132;SDS011;2080;51.038;7.008;2022-08-19T02:04:13;380.83;;;201.87;;
4132;SDS011;2080;51.038;7.008;2022-08-19T02:06:39;353.70;;;149.70;;
4132;SDS011;2080;51.038;7.008;2022-08-19T02:09:06;372.27;;;178.47;;
4132;SDS011;2080;51.038;7.008;2022-08-19T02:11:36;394.37;;;216.37;;
4132;SDS011;2080;51.038;7.008;2022-08-19T02:14:07;461.03;;;384.87;;
4132;SDS011;2080;51.038;7.008;2022-08-19T02:16:33;443.37;;;345.90;;
4132;SDS011;2080;51.038;7.008;2022-08-19T02:18:59;437.13;;;337.20;;
4132;SDS011;2080;51.038;7.008;2022-08-19T02:21:27;409.17;;;272.60;;
4132;SDS011;2080;51.038;7.008;2022-08-19T02:23:53;359.20;;;149.57;;
4132;SDS011;2080;51.038;7.008;2022-08-19T02:26:20;384.57;;;209.27;;
4132;SDS011;2080;51.038;7.008;2022-08-19T02:28:46;379.80;;;193.77;;
4132;SDS011;2080;51.038;7.008;2022-08-19T02:31:14;383.20;;;205.53;;
4132;SDS011;2080;51.038;7.008;2022-08-19T02:33:42;379.10;;;190.37;;
4132;SDS011;2080;51.038;7.008;2022-08-19T02:36:07;388.13;;;216.40;;
4132;SDS011;2080;51.038;7.008;2022-08-19T02:38:34;374.80;;;200.27;;
4132;SDS011;2080;51.038;7.008;2022-08-19T02:41:04;374.70;;;193.57;;
4132;SDS011;2080;51.038;7.008;2022-08-19T02:43:36;380.53;;;181.37;;
4132;SDS011;2080;51.038;7.008;2022-08-19T02:46:10;353.33;;;152.23;;
4132;SDS011;2080;51.038;7.008;2022-08-19T02:48:40;334.17;;;100.93;;
4132;SDS011;2080;51.038;7.008;2022-08-19T02:51:05;402.93;;;246.90;;
4132;SDS011;2080;51.038;7.008;2022-08-19T02:53:30;340.17;;;119.13;;
4132;SDS011;2080;51.038;7.008;2022-08-19T02:55:58;375.13;;;185.97;;
4132;SDS011;2080;51.038;7.008;2022-08-19T02:58:24;371.70;;;173.00;;
4132;SDS011;2080;51.038;7.008;2022-08-19T03:00:53;347.10;;;135.13;;
4132;SDS011;2080;51.038;7.008;2022-08-19T03:03:22;337.10;;;118.93;;
4132;SDS011;2080;51.038;7.008;2022-08-19T03:05:50;327.83;;;85.20;;
4132;SDS011;2080;51.038;7.008;2022-08-19T03:08:29;351.57;;;134.40;;
4132;SDS011;2080;51.038;7.008;2022-08-19T03:10:55;356.87;;;157.50;;
4132;SDS011;2080;51.038;7.008;2022-08-19T03:13:20;363.13;;;164.20;;
4132;SDS011;2080;51.038;7.008;2022-08-19T03:15:47;345.63;;;129.30;;
4132;SDS011;2080;51.038;7.008;2022-08-19T03:18:13;380.33;;;178.13;;
4132;SDS011;2080;51.038;7.008;2022-08-19T03:20:40;359.40;;;155.83;;
4132;SDS011;2080;51.038;7.008;2022-08-19T03:23:12;347.73;;;120.40;;
4132;SDS011;2080;51.038;7.008;2022-08-19T03:25:40;386.17;;;223.17;;
4132;SDS011;2080;51.038;7.008;2022-08-19T03:28:09;399.63;;;230.63;;
4132;SDS011;2080;51.038;7.008;2022-08-19T03:30:36;364.13;;;161.90;;
4132;SDS011;2080;51.038;7.008;2022-08-19T03:33:02;375.27;;;184.60;;
4132;SDS011;2080;51.038;7.008;2022-08-19T03:35:28;389.30;;;219.73;;
4132;SDS011;2080;51.038;7.008;2022-08-19T03:37:53;388.30;;;207.57;;
4132;SDS011;2080;51.038;7.008;2022-08-19T03:40:19;354.47;;;144.47;;
4132;SDS011;2080;51.038;7.008;2022-08-19T03:42:46;388.07;;;215.47;;
4132;SDS011;2080;51.038;7.008;2022-08-19T03:45:15;461.03;;;375.57;;
4132;SDS011;2080;51.038;7.008;2022-08-19T03:47:40;349.53;;;143.63;;
4132;SDS011;2080;51.038;7.008;2022-08-19T03:50:11;397.20;;;239.87;;
4132;SDS011;2080;51.038;7.008;2022-08-19T03:52:36;439.53;;;326.37;;
4132;SDS011;2080;51.038;7.008;2022-08-19T03:55:02;501.77;;;434.17;;
4132;SDS011;2080;51.038;7.008;2022-08-19T03:57:30;439.00;;;328.27;;
4132;SDS011;2080;51.038;7.008;2022-08-19T03:59:55;379.67;;;202.00;;
4132;SDS011;2080;51.038;7.008;2022-08-19T04:02:21;438.83;;;334.07;;
4132;SDS011;2080;51.038;7.008;2022-08-19T04:04:46;384.23;;;214.40;;
4132;SDS011;2080;51.038;7.008;2022-08-19T04:07:20;470.03;;;396.13;;
4132;SDS011;2080;51.038;7.008;2022-08-19T04:09:46;412.00;;;282.07;;
4132;SDS011;2080;51.038;7.008;2022-08-19T04:12:11;429.33;;;313.17;;
4132;SDS011;2080;51.038;7.008;2022-08-19T04:14:40;446.67;;;349.70;;
4132;SDS011;2080;51.038;7.008;2022-08-19T04:17:08;398.17;;;238.77;;
4132;SDS011;2080;51.038;7.008;2022-08-19T04:19:34;450.07;;;347.43;;
4132;SDS011;2080;51.038;7.008;2022-08-19T04:22:00;486.20;;;415.33;;
4132;SDS011;2080;51.038;7.008;2022-08-19T04:24:29;570.90;;;513.80;;
4132;SDS011;2080;51.038;7.008;2022-08-19T04:26:54;611.33;;;552.40;;
4132;SDS011;2080;51.038;7.008;2022-08-19T04:29:21;602.67;;;543.77;;
4132;SDS011;2080;51.038;7.008;2022-08-19T04:31:50;560.00;;;502.70;;
4132;SDS011;2080;51.038;7.008;2022-08-19T04:34:17;534.10;;;479.20;;
4132;SDS011;2080;51.038;7.008;2022-08-19T04:36:47;472.10;;;401.93;;
4132;SDS011;2080;51.038;7.008;2022-08-19T04:39:17;584.53;;;526.23;;
4132;SDS011;2080;51.038;7.008;2022-08-19T04:41:47;594.43;;;536.77;;
4132;SDS011;2080;51.038;7.008;2022-08-19T04:44:31;647.37;;;586.20;;
4132;SDS011;2080;51.038;7.008;2022-08-19T04:46:58;631.80;;;571.27;;
4132;SDS011;2080;51.038;7.008;2022-08-19T04:49:26;608.20;;;549.83;;
4132;SDS011;2080;51.038;7.008;2022-08-19T04:51:53;676.90;;;613.47;;
4132;SDS011;2080;51.038;7.008;2022-08-19T04:54:21;697.40;;;633.80;;
4132;SDS011;2080;51.038;7.008;2022-08-19T04:56:50;732.87;;;666.57;;
4132;SDS011;2080;51.038;7.008;2022-08-19T04:59:21;661.30;;;599.27;;
4132;SDS011;2080;51.038;7.008;2022-08-19T05:01:46;671.10;;;608.50;;
4132;SDS011;2080;51.038;7.008;2022-08-19T05:04:18;694.03;;;629.67;;
4132;SDS011;2080;51.038;7.008;2022-08-19T05:06:45;719.97;;;653.93;;
4132;SDS011;2080;51.038;7.008;2022-08-19T05:09:12;700.17;;;635.83;;
4132;SDS011;2080;51.038;7.008;2022-08-19T05:11:37;640.47;;;579.70;;
4132;SDS011;2080;51.038;7.008;2022-08-19T05:14:06;658.43;;;596.57;;
4132;SDS011;2080;51.038;7.008;2022-08-19T05:16:32;679.17;;;616.33;;
4132;SDS011;2080;51.038;7.008;2022-08-19T05:19:00;679.13;;;615.90;;
4132;SDS011;2080;51.038;7.008;2022-08-19T05:21:44;717.00;;;652.47;;
4132;SDS011;2080;51.038;7.008;2022-08-19T05:24:30;785.17;;;714.87;;
4132;SDS011;2080;51.038;7.008;2022-08-19T05:27:01;797.10;;;726.60;;
4132;SDS011;2080;51.038;7.008;2022-08-19T05:29:28;788.27;;;717.57;;
4132;SDS011;2080;51.038;7.008;2022-08-19T05:31:54;825.27;;;751.83;;
4132;SDS011;2080;51.038;7.008;2022-08-19T05:34:21;808.80;;;737.27;;
4132;SDS011;2080;51.038;7.008;2022-08-19T05:36:51;851.03;;;776.20;;
4132;SDS011;2080;51.038;7.008;2022-08-19T05:39:21;851.60;;;776.33;;
4132;SDS011;2080;51.038;7.008;2022-08-19T05:41:51;844.57;;;770.30;;
4132;SDS011;2080;51.038;7.008;2022-08-19T05:44:24;803.07;;;731.67;;
4132;SDS011;2080;51.038;7.008;2022-08-19T05:46:51;844.60;;;769.57;;
4132;SDS011;2080;51.038;7.008;2022-08-19T05:49:20;827.73;;;754.43;;
4132;SDS011;2080;51.038;7.008;2022-08-19T05:51:47;898.33;;;817.47;;
4132;SDS011;2080;51.038;7.008;2022-08-19T05:54:13;811.03;;;737.83;;
4132;SDS011;2080;51.038;7.008;2022-08-19T05:56:39;842.00;;;766.27;;
4132;SDS011;2080;51.038;7.008;2022-08-19T05:59:09;759.83;;;689.07;;
4132;SDS011;2080;51.038;7.008;2022-08-19T06:01:40;791.50;;;718.30;;
4132;SDS011;2080;51.038;7.008;2022-08-19T06:04:07;737.63;;;668.40;;
4132;SDS011;2080;51.038;7.008;2022-08-19T06:06:35;692.37;;;626.30;;
4132;SDS011;2080;51.038;7.008;2022-08-19T06:09:02;724.97;;;656.17;;
4132;SDS011;2080;51.038;7.008;2022-08-19T06:11:43;599.20;;;538.30;;
4132;SDS011;2080;51.038;7.008;2022-08-19T06:14:15;719.43;;;652.23;;
4132;SDS011;2080;51.038;7.008;2022-08-19T06:16:46;469.00;;;329.50;;
4132;SDS011;2080;51.038;7.008;2022-08-19T06:19:14;602.67;;;540.20;;
4132;SDS011;2080;51.038;7.008;2022-08-19T06:21:42;640.30;;;578.00;;
4132;SDS011;2080;51.038;7.008;2022-08-19T06:24:09;548.73;;;490.63;;
4132;SDS011;2080;51.038;7.008;2022-08-19T06:26:42;527.13;;;464.13;;
4132;SDS011;2080;51.038;7.008;2022-08-19T06:29:13;707.60;;;640.83;;
4132;SDS011;2080;51.038;7.008;2022-08-19T06:31:44;562.33;;;499.57;;
4132;SDS011;2080;51.038;7.008;2022-08-19T06:34:14;703.50;;;635.73;;
4132;SDS011;2080;51.038;7.008;2022-08-19T06:36:42;825.47;;;749.47;;
4132;SDS011;2080;51.038;7.008;2022-08-19T06:39:13;746.67;;;677.57;;
4132;SDS011;2080;51.038;7.008;2022-08-19T06:41:42;818.50;;;745.37;;
4132;SDS011;2080;51.038;7.008;2022-08-19T06:44:11;903.50;;;820.47;;
4132;SDS011;2080;51.038;7.008;2022-08-19T06:46:38;814.83;;;741.10;;
4132;SDS011;2080;51.038;7.008;2022-08-19T06:49:07;806.07;;;732.40;;
4132;SDS011;2080;51.038;7.008;2022-08-19T06:51:35;859.77;;;781.70;;
4132;SDS011;2080;51.038;7.008;2022-08-19T06:54:03;933.70;;;849.90;;
4132;SDS011;2080;51.038;7.008;2022-08-19T06:56:31;904.47;;;823.40;;
4132;SDS011;2080;51.038;7.008;2022-08-19T06:59:09;948.23;;;862.80;;
4132;SDS011;2080;51.038;7.008;2022-08-19T07:01:39;962.03;;;874.93;;
4132;SDS011;2080;51.038;7.008;2022-08-19T07:04:07;970.80;;;880.97;;
4132;SDS011;2080;51.038;7.008;2022-08-19T07:06:34;871.80;;;789.27;;
4132;SDS011;2080;51.038;7.008;2022-08-19T07:09:00;1021.90;;;926.47;;
4132;SDS011;2080;51.038;7.008;2022-08-19T07:11:29;943.47;;;858.20;;
4132;SDS011;2080;51.038;7.008;2022-08-19T07:13:55;948.90;;;864.10;;
4132;SDS011;2080;51.038;7.008;2022-08-19T07:16:21;981.60;;;893.50;;
4132;SDS011;2080;51.038;7.008;2022-08-19T07:18:49;993.67;;;900.80;;
4132;SDS011;2080;51.038;7.008;2022-08-19T07:21:17;1032.13;;;935.17;;
4132;SDS011;2080;51.038;7.008;2022-08-19T07:23:45;985.03;;;895.50;;
4132;SDS011;2080;51.038;7.008;2022-08-19T07:28:52;958.63;;;869.67;;
4132;SDS011;2080;51.038;7.008;2022-08-19T07:31:22;1011.37;;;918.47;;
4132;SDS011;2080;51.038;7.008;2022-08-19T07:33:49;1066.37;;;966.97;;
4132;SDS011;2080;51.038;7.008;2022-08-19T07:36:18;1039.83;;;944.60;;
4132;SDS011;2080;51.038;7.008;2022-08-19T07:38:47;952.13;;;865.30;;
4132;SDS011;2080;51.038;7.008;2022-08-19T07:41:16;1083.43;;;986.20;;
4132;SDS011;2080;51.038;7.008;2022-08-19T07:43:47;1072.93;;;971.67;;
4132;SDS011;2080;51.038;7.008;2022-08-19T07:46:15;1046.67;;;950.07;;
4132;SDS011;2080;51.038;7.008;2022-08-19T07:48:43;978.23;;;889.20;;
4132;SDS011;2080;51.038;7.008;2022-08-19T07:51:13;819.70;;;744.27;;
4132;SDS011;2080;51.038;7.008;2022-08-19T07:53:41;806.43;;;732.60;;
4132;SDS011;2080;51.038;7.008;2022-08-19T07:56:08;755.23;;;684.57;;
4132;SDS011;2080;51.038;7.008;2022-08-19T07:58:40;572.03;;;511.67;;
4132;SDS011;2080;51.038;7.008;2022-08-19T08:01:07;494.20;;;405.57;;
4132;SDS011;2080;51.038;7.008;2022-08-19T08:03:38;506.03;;;416.80;;
4132;SDS011;2080;51.038;7.008;2022-08-19T08:06:22;538.17;;;476.17;;
4132;SDS011;2080;51.038;7.008;2022-08-19T08:09:07;638.30;;;572.20;;
4132;SDS011;2080;51.038;7.008;2022-08-19T08:11:47;756.70;;;685.67;;
4132;SDS011;2080;51.038;7.008;2022-08-19T08:14:30;625.23;;;563.37;;
4132;SDS011;2080;51.038;7.008;2022-08-19T08:17:02;460.43;;;295.43;;
4132;SDS011;2080;51.038;7.008;2022-08-19T08:19:29;484.13;;;376.47;;
4132;SDS011;2080;51.038;7.008;2022-08-19T08:21:56;437.80;;;267.97;;
4132;SDS011;2080;51.038;7.008;2022-08-19T08:24:24;415.43;;;175.90;;
4132;SDS011;2080;51.038;7.008;2022-08-19T08:26:50;422.47;;;182.37;;
4132;SDS011;2080;51.038;7.008;2022-08-19T08:29:16;414.63;;;165.30;;
4132;SDS011;2080;51.038;7.008;2022-08-19T08:31:44;421.50;;;194.57;;
4132;SDS011;2080;51.038;7.008;2022-08-19T08:34:11;465.87;;;315.57;;
4132;SDS011;2080;51.038;7.008;2022-08-19T08:36:38;409.07;;;206.60;;
4132;SDS011;2080;51.038;7.008;2022-08-19T08:39:09;431.93;;;256.50;;
4132;SDS011;2080;51.038;7.008;2022-08-19T08:44:17;425.97;;;222.57;;
4132;SDS011;2080;51.038;7.008;2022-08-19T08:46:54;477.40;;;352.27;;
4132;SDS011;2080;51.038;7.008;2022-08-19T08:52:15;687.40;;;621.17;;
4132;SDS011;2080;51.038;7.008;2022-08-19T08:54:54;847.90;;;769.80;;
4132;SDS011;2080;51.038;7.008;2022-08-19T08:59:57;868.10;;;789.60;;
4132;SDS011;2080;51.038;7.008;2022-08-19T09:02:30;790.63;;;716.50;;
4132;SDS011;2080;51.038;7.008;2022-08-19T09:04:59;673.53;;;608.40;;
4132;SDS011;2080;51.038;7.008;2022-08-19T09:07:37;639.13;;;577.37;;
4132;SDS011;2080;51.038;7.008;2022-08-19T09:10:22;680.10;;;614.10;;
4132;SDS011;2080;51.038;7.008;2022-08-19T09:13:02;750.33;;;679.33;;
4132;SDS011;2080;51.038;7.008;2022-08-19T09:15:42;751.80;;;682.27;;
4132;SDS011;2080;51.038;7.008;2022-08-19T09:18:13;813.73;;;739.23;;
4132;SDS011;2080;51.038;7.008;2022-08-19T09:20:39;708.13;;;639.47;;
4132;SDS011;2080;51.038;7.008;2022-08-19T09:23:07;798.67;;;723.47;;
4132;SDS011;2080;51.038;7.008;2022-08-19T09:25:33;520.40;;;431.57;;
4132;SDS011;2080;51.038;7.008;2022-08-19T09:28:01;513.23;;;429.37;;
4132;SDS011;2080;51.038;7.008;2022-08-19T09:30:38;468.97;;;292.87;;
4132;SDS011;2080;51.038;7.008;2022-08-19T09:33:06;490.53;;;383.00;;
4132;SDS011;2080;51.038;7.008;2022-08-19T09:35:32;505.00;;;415.60;;
4132;SDS011;2080;51.038;7.008;2022-08-19T09:37:58;444.80;;;228.63;;
4132;SDS011;2080;51.038;7.008;2022-08-19T09:40:25;419.37;;;142.40;;
4132;SDS011;2080;51.038;7.008;2022-08-19T09:42:51;384.33;;;137.87;;
4132;SDS011;2080;51.038;7.008;2022-08-19T09:45:20;415.77;;;136.33;;
4132;SDS011;2080;51.038;7.008;2022-08-19T09:47:46;419.27;;;135.40;;
4132;SDS011;2080;51.038;7.008;2022-08-19T09:50:13;422.40;;;170.30;;
4132;SDS011;2080;51.038;7.008;2022-08-19T09:52:41;437.97;;;206.27;;
4132;SDS011;2080;51.038;7.008;2022-08-19T09:55:07;404.10;;;133.93;;
4132;SDS011;2080;51.038;7.008;2022-08-19T09:57:39;405.13;;;129.87;;
4132;SDS011;2080;51.038;7.008;2022-08-19T10:00:07;404.83;;;164.40;;
4132;SDS011;2080;51.038;7.008;2022-08-19T10:02:34;404.73;;;118.37;;
4132;SDS011;2080;51.038;7.008;2022-08-19T10:05:00;398.47;;;125.83;;
4132;SDS011;2080;51.038;7.008;2022-08-19T10:07:44;378.83;;;130.03;;
4132;SDS011;2080;51.038;7.008;2022-08-19T10:10:09;382.90;;;93.03;;
4132;SDS011;2080;51.038;7.008;2022-08-19T10:12:35;373.77;;;96.50;;
4132;SDS011;2080;51.038;7.008;2022-08-19T10:15:02;368.83;;;94.53;;
4132;SDS011;2080;51.038;7.008;2022-08-19T10:17:29;355.13;;;74.90;;
4132;SDS011;2080;51.038;7.008;2022-08-19T10:19:56;363.67;;;72.70;;
4132;SDS011;2080;51.038;7.008;2022-08-19T10:22:22;372.10;;;73.77;;
4132;SDS011;2080;51.038;7.008;2022-08-19T10:24:52;355.60;;;73.07;;
4132;SDS011;2080;51.038;7.008;2022-08-19T10:27:18;373.50;;;112.67;;
4132;SDS011;2080;51.038;7.008;2022-08-19T10:29:43;378.37;;;130.10;;
4132;SDS011;2080;51.038;7.008;2022-08-19T10:32:12;399.40;;;116.43;;
4132;SDS011;2080;51.038;7.008;2022-08-19T10:34:37;368.27;;;95.80;;
4132;SDS011;2080;51.038;7.008;2022-08-19T10:37:06;384.73;;;98.30;;
4132;SDS011;2080;51.038;7.008;2022-08-19T10:39:35;417.30;;;121.47;;
4132;SDS011;2080;51.038;7.008;2022-08-19T10:42:07;398.43;;;135.90;;
4132;SDS011;2080;51.038;7.008;2022-08-19T10:44:37;389.97;;;109.43;;
4132;SDS011;2080;51.038;7.008;2022-08-19T10:47:03;389.73;;;129.73;;
4132;SDS011;2080;51.038;7.008;2022-08-19T10:49:28;388.53;;;150.60;;
4132;SDS011;2080;51.038;7.008;2022-08-19T10:51:55;382.93;;;152.47;;
4132;SDS011;2080;51.038;7.008;2022-08-19T10:54:40;395.80;;;178.63;;
4132;SDS011;2080;51.038;7.008;2022-08-19T10:57:30;400.93;;;181.87;;
4132;SDS011;2080;51.038;7.008;2022-08-19T10:59:55;388.33;;;176.27;;
4132;SDS011;2080;51.038;7.008;2022-08-19T11:02:21;384.53;;;193.77;;
4132;SDS011;2080;51.038;7.008;2022-08-19T11:04:49;395.93;;;186.47;;
4132;SDS011;2080;51.038;7.008;2022-08-19T11:07:20;402.40;;;177.67;;
4132;SDS011;2080;51.038;7.008;2022-08-19T11:09:46;399.37;;;179.13;;
4132;SDS011;2080;51.038;7.008;2022-08-19T11:12:11;380.47;;;164.33;;
4132;SDS011;2080;51.038;7.008;2022-08-19T11:14:39;380.73;;;160.63;;
4132;SDS011;2080;51.038;7.008;2022-08-19T11:17:05;381.00;;;153.83;;
4132;SDS011;2080;51.038;7.008;2022-08-19T11:19:31;397.63;;;146.73;;
4132;SDS011;2080;51.038;7.008;2022-08-19T11:21:59;365.20;;;134.97;;
4132;SDS011;2080;51.038;7.008;2022-08-19T11:24:26;337.00;;;75.03;;
4132;SDS011;2080;51.038;7.008;2022-08-19T11:27:00;367.50;;;151.20;;
4132;SDS011;2080;51.038;7.008;2022-08-19T11:29:27;383.37;;;171.87;;
4132;SDS011;2080;51.038;7.008;2022-08-19T11:31:54;372.13;;;136.67;;
4132;SDS011;2080;51.038;7.008;2022-08-19T11:34:24;375.63;;;156.70;;
4132;SDS011;2080;51.038;7.008;2022-08-19T11:36:54;422.93;;;211.60;;
4132;SDS011;2080;51.038;7.008;2022-08-19T11:39:23;386.97;;;147.37;;
4132;SDS011;2080;51.038;7.008;2022-08-19T11:41:52;344.33;;;60.37;;
4132;SDS011;2080;51.038;7.008;2022-08-19T11:44:22;365.33;;;100.50;;
4132;SDS011;2080;51.038;7.008;2022-08-19T11:46:48;357.83;;;92.33;;
4132;SDS011;2080;51.038;7.008;2022-08-19T11:49:15;353.40;;;98.20;;
4132;SDS011;2080;51.038;7.008;2022-08-19T11:51:43;394.00;;;125.17;;
4132;SDS011;2080;51.038;7.008;2022-08-19T11:54:12;362.10;;;85.30;;
4132;SDS011;2080;51.038;7.008;2022-08-19T11:56:39;354.37;;;96.67;;
4132;SDS011;2080;51.038;7.008;2022-08-19T11:59:08;406.63;;;156.20;;
4132;SDS011;2080;51.038;7.008;2022-08-19T12:01:33;403.10;;;162.37;;
4132;SDS011;2080;51.038;7.008;2022-08-19T12:03:59;349.40;;;97.03;;
4132;SDS011;2080;51.038;7.008;2022-08-19T12:06:30;351.80;;;80.77;;
4132;SDS011;2080;51.038;7.008;2022-08-19T12:09:04;349.50;;;86.90;;
4132;SDS011;2080;51.038;7.008;2022-08-19T12:11:34;404.53;;;152.50;;
4132;SDS011;2080;51.038;7.008;2022-08-19T12:14:05;351.63;;;88.67;;
4132;SDS011;2080;51.038;7.008;2022-08-19T12:16:36;351.30;;;102.77;;
4132;SDS011;2080;51.038;7.008;2022-08-19T12:19:04;373.03;;;130.27;;
4132;SDS011;2080;51.038;7.008;2022-08-19T12:21:30;403.50;;;162.10;;
4132;SDS011;2080;51.038;7.008;2022-08-19T12:24:00;426.93;;;201.70;;
4132;SDS011;2080;51.038;7.008;2022-08-19T12:26:29;355.67;;;84.77;;
4132;SDS011;2080;51.038;7.008;2022-08-19T12:28:56;396.10;;;176.47;;
4132;SDS011;2080;51.038;7.008;2022-08-19T12:31:24;388.00;;;175.70;;
4132;SDS011;2080;51.038;7.008;2022-08-19T12:33:50;352.27;;;104.07;;
4132;SDS011;2080;51.038;7.008;2022-08-19T12:36:17;376.93;;;153.67;;
4132;SDS011;2080;51.038;7.008;2022-08-19T12:38:42;379.47;;;156.43;;
4132;SDS011;2080;51.038;7.008;2022-08-19T12:41:12;372.70;;;156.60;;
4132;SDS011;2080;51.038;7.008;2022-08-19T12:43:40;368.03;;;162.03;;
4132;SDS011;2080;51.038;7.008;2022-08-19T12:46:07;367.87;;;143.13;;
4132;SDS011;2080;51.038;7.008;2022-08-19T12:48:38;357.33;;;122.17;;
4132;SDS011;2080;51.038;7.008;2022-08-19T12:51:07;348.73;;;102.77;;
4132;SDS011;2080;51.038;7.008;2022-08-19T12:53:35;349.40;;;82.63;;
4132;SDS011;2080;51.038;7.008;2022-08-19T12:56:03;369.40;;;130.83;;
4132;SDS011;2080;51.038;7.008;2022-08-19T12:58:28;359.03;;;132.93;;
4132;SDS011;2080;51.038;7.008;2022-08-19T13:00:54;376.63;;;128.07;;
4132;SDS011;2080;51.038;7.008;2022-08-19T13:03:20;363.13;;;124.57;;
4132;SDS011;2080;51.038;7.008;2022-08-19T13:05:54;378.93;;;152.93;;
4132;SDS011;2080;51.038;7.008;2022-08-19T13:08:22;384.43;;;143.90;;
4132;SDS011;2080;51.038;7.008;2022-08-19T13:10:47;352.67;;;123.57;;
4132;SDS011;2080;51.038;7.008;2022-08-19T13:13:13;392.07;;;197.83;;
4132;SDS011;2080;51.038;7.008;2022-08-19T13:15:40;378.27;;;143.50;;
4132;SDS011;2080;51.038;7.008;2022-08-19T13:18:07;359.90;;;146.20;;
4132;SDS011;2080;51.038;7.008;2022-08-19T13:20:36;350.90;;;82.23;;
4132;SDS011;2080;51.038;7.008;2022-08-19T13:23:03;344.97;;;101.00;;
4132;SDS011;2080;51.038;7.008;2022-08-19T13:25:32;315.90;;;56.43;;
4132;SDS011;2080;51.038;7.008;2022-08-19T13:27:58;350.50;;;75.37;;
4132;SDS011;2080;51.038;7.008;2022-08-19T13:30:24;323.43;;;68.00;;
4132;SDS011;2080;51.038;7.008;2022-08-19T13:33:08;328.90;;;52.77;;
4132;SDS011;2080;51.038;7.008;2022-08-19T13:35:58;316.77;;;49.37;;
4132;SDS011;2080;51.038;7.008;2022-08-19T13:38:24;369.77;;;132.17;;
4132;SDS011;2080;51.038;7.008;2022-08-19T13:40:51;340.73;;;80.37;;
4132;SDS011;2080;51.038;7.008;2022-08-19T13:43:20;330.50;;;47.47;;
4132;SDS011;2080;51.038;7.008;2022-08-19T13:45:48;361.77;;;134.23;;
4132;SDS011;2080;51.038;7.008;2022-08-19T13:48:20;355.33;;;73.23;;
4132;SDS011;2080;51.038;7.008;2022-08-19T13:50:49;370.90;;;91.03;;
4132;SDS011;2080;51.038;7.008;2022-08-19T13:53:14;328.10;;;55.03;;
4132;SDS011;2080;51.038;7.008;2022-08-19T13:55:45;323.23;;;50.43;;
4132;SDS011;2080;51.038;7.008;2022-08-19T13:58:10;308.83;;;39.70;;
4132;SDS011;2080;51.038;7.008;2022-08-19T14:00:40;327.47;;;41.40;;
4132;SDS011;2080;51.038;7.008;2022-08-19T14:03:08;327.90;;;41.30;;
4132;SDS011;2080;51.038;7.008;2022-08-19T14:05:36;300.27;;;37.80;;
4132;SDS011;2080;51.038;7.008;2022-08-19T14:08:02;306.83;;;36.80;;
4132;SDS011;2080;51.038;7.008;2022-08-19T14:10:27;308.80;;;35.50;;
4132;SDS011;2080;51.038;7.008;2022-08-19T14:12:56;301.33;;;33.37;;
4132;SDS011;2080;51.038;7.008;2022-08-19T14:15:25;361.07;;;116.67;;
4132;SDS011;2080;51.038;7.008;2022-08-19T14:17:51;311.10;;;36.80;;
4132;SDS011;2080;51.038;7.008;2022-08-19T14:20:20;338.73;;;52.83;;
4132;SDS011;2080;51.038;7.008;2022-08-19T14:22:48;302.73;;;36.73;;
4132;SDS011;2080;51.038;7.008;2022-08-19T14:25:19;344.60;;;37.30;;
4132;SDS011;2080;51.038;7.008;2022-08-19T14:27:46;310.70;;;43.73;;
4132;SDS011;2080;51.038;7.008;2022-08-19T14:30:16;324.67;;;37.27;;
4132;SDS011;2080;51.038;7.008;2022-08-19T14:32:44;305.00;;;33.27;;
4132;SDS011;2080;51.038;7.008;2022-08-19T14:35:11;303.07;;;36.10;;
4132;SDS011;2080;51.038;7.008;2022-08-19T14:37:37;303.60;;;38.90;;
4132;SDS011;2080;51.038;7.008;2022-08-19T14:40:07;328.97;;;64.73;;
4132;SDS011;2080;51.038;7.008;2022-08-19T14:42:33;322.87;;;82.43;;